createdAt,value
2023-01-19T00:00:12.880Z,15.13
2023-01-19T00:02:39.247Z,16.17
2023-01-19T00:05:06.067Z,15.33
2023-01-19T00:07:32.757Z,14.97
2023-01-19T00:09:59.258Z,15.20
2023-01-19T00:12:26.355Z,14.77
2023-01-19T00:14:52.756Z,15.47
2023-01-19T00:17:19.104Z,15.70
2023-01-19T00:19:45.445Z,15.80
2023-01-19T00:22:11.763Z,16.67
2023-01-19T00:24:38.163Z,16.17
2023-01-19T00:27:04.560Z,14.93
2023-01-19T00:29:33.339Z,16.27
2023-01-19T00:32:04.549Z,16.20
2023-01-19T00:34:39.470Z,15.10
2023-01-19T00:37:07.147Z,15.53
2023-01-19T00:39:33.495Z,16.00
2023-01-19T00:42:18.517Z,15.30
2023-01-19T00:44:44.915Z,16.40
2023-01-19T00:47:11.322Z,15.60
2023-01-19T00:49:37.724Z,16.00
2023-01-19T00:52:04.234Z,16.07
2023-01-19T00:54:30.657Z,16.10
2023-01-19T00:56:56.996Z,15.70
2023-01-19T00:59:23.358Z,15.43
2023-01-19T01:01:49.780Z,16.43
2023-01-19T01:04:16.259Z,15.53
2023-01-19T01:06:42.682Z,15.93
2023-01-19T01:09:11.834Z,16.67
2023-01-19T01:11:42.455Z,16.17
2023-01-19T01:14:11.102Z,16.50
2023-01-19T01:16:37.558Z,16.37
2023-01-19T01:19:04.010Z,16.47
2023-01-19T01:21:30.389Z,15.67
2023-01-19T01:23:56.737Z,16.17
2023-01-19T01:26:23.243Z,15.03
2023-01-19T01:28:50.552Z,15.03
2023-01-19T01:31:16.928Z,16.07
2023-01-19T01:33:43.405Z,15.37
2023-01-19T01:36:11.472Z,16.60
2023-01-19T01:38:39.457Z,16.67
2023-01-19T01:41:06.101Z,15.27
2023-01-19T01:43:44.775Z,16.30
2023-01-19T01:46:11.885Z,16.27
2023-01-19T01:48:40.034Z,17.57
2023-01-19T01:51:25.789Z,17.00
2023-01-19T01:54:19.817Z,16.87
2023-01-19T01:56:52.781Z,15.53
2023-01-19T01:59:29.679Z,16.57
2023-01-19T02:02:18.767Z,16.77
2023-01-19T02:04:53.989Z,15.40
2023-01-19T02:07:48.223Z,15.00
2023-01-19T02:10:33.440Z,16.50
2023-01-19T02:13:18.702Z,14.70
2023-01-19T02:15:45.714Z,15.70
2023-01-19T02:18:12.157Z,15.87
2023-01-19T02:20:42.256Z,15.50
2023-01-19T02:23:16.756Z,15.77
2023-01-19T02:25:43.126Z,15.37
2023-01-19T02:28:09.947Z,14.93
2023-01-19T02:30:39.867Z,15.73
2023-01-19T02:33:07.080Z,13.80
2023-01-19T02:35:35.953Z,15.90
2023-01-19T02:38:03.884Z,15.43
2023-01-19T02:40:30.605Z,16.00
2023-01-19T02:43:00.902Z,15.67
2023-01-19T02:45:27.874Z,16.17
2023-01-19T02:47:54.449Z,15.63
2023-01-19T02:50:38.130Z,15.80
2023-01-19T02:53:42.727Z,14.80
2023-01-19T02:56:19.142Z,14.57
2023-01-19T02:59:19.553Z,14.63
2023-01-19T03:02:04.483Z,13.80
2023-01-19T03:04:56.312Z,15.27
2023-01-19T03:07:40.041Z,13.10
2023-01-19T03:10:12.200Z,14.70
2023-01-19T03:12:52.088Z,15.33
2023-01-19T03:15:23.238Z,14.40
2023-01-19T03:17:51.783Z,13.93
2023-01-19T03:20:24.573Z,15.87
2023-01-19T03:23:00.518Z,14.73
2023-01-19T03:25:31.194Z,14.60
2023-01-19T03:27:57.775Z,14.30
2023-01-19T03:30:28.870Z,13.50
2023-01-19T03:33:01.130Z,15.03
2023-01-19T03:35:32.940Z,14.07
2023-01-19T03:38:03.604Z,14.43
2023-01-19T03:40:33.221Z,15.53
2023-01-19T03:43:02.466Z,15.30
2023-01-19T03:45:32.558Z,14.63
2023-01-19T03:47:59.783Z,13.23
2023-01-19T03:50:29.470Z,14.00
2023-01-19T03:53:05.321Z,14.73
2023-01-19T03:55:31.995Z,14.47
2023-01-19T03:57:58.470Z,13.27
2023-01-19T04:00:25.072Z,13.63
2023-01-19T04:02:51.731Z,13.87
2023-01-19T04:05:19.047Z,14.63
2023-01-19T04:07:48.368Z,13.37
2023-01-19T04:10:16.671Z,13.63
2023-01-19T04:12:43.087Z,14.37
2023-01-19T04:15:09.507Z,14.47
2023-01-19T04:17:35.934Z,13.90
2023-01-19T04:20:02.352Z,13.37
2023-01-19T04:22:29.478Z,12.83
2023-01-19T04:24:55.922Z,14.20
2023-01-19T04:27:22.364Z,13.83
2023-01-19T04:29:48.783Z,14.33
2023-01-19T04:32:15.222Z,14.10
2023-01-19T04:34:41.613Z,13.90
2023-01-19T04:37:08.445Z,13.63
2023-01-19T04:39:35.080Z,14.23
2023-01-19T04:42:01.403Z,13.47
2023-01-19T04:44:28.644Z,13.10
2023-01-19T04:46:55.048Z,13.97
2023-01-19T04:49:21.420Z,13.27
2023-01-19T04:51:47.765Z,13.73
2023-01-19T04:54:14.171Z,13.40
2023-01-19T04:56:43.470Z,13.37
2023-01-19T04:59:09.872Z,13.77
2023-01-19T05:01:36.705Z,13.87
2023-01-19T05:04:06.255Z,14.90
2023-01-19T05:06:33.444Z,14.67
2023-01-19T05:08:59.919Z,15.07
2023-01-19T05:11:26.315Z,15.10
2023-01-19T05:13:52.831Z,15.77
2023-01-19T05:16:19.185Z,16.23
2023-01-19T05:18:45.546Z,17.40
2023-01-19T05:21:11.888Z,17.23
2023-01-19T05:23:38.435Z,17.43
2023-01-19T05:26:05.045Z,17.73
2023-01-19T05:28:33.036Z,18.03
2023-01-19T05:30:59.716Z,17.73
2023-01-19T05:33:26.139Z,18.00
2023-01-19T05:35:53.506Z,17.10
2023-01-19T05:38:33.890Z,17.53
2023-01-19T05:41:01.143Z,18.30
2023-01-19T05:43:27.471Z,17.90
2023-01-19T05:45:53.799Z,17.90
2023-01-19T05:48:20.223Z,16.83
2023-01-19T05:50:49.205Z,15.97
2023-01-19T05:53:16.715Z,16.77
2023-01-19T05:55:43.116Z,13.43
2023-01-19T05:58:09.506Z,17.20
2023-01-19T06:00:35.993Z,17.00
2023-01-19T06:03:02.932Z,13.93
2023-01-19T06:05:29.662Z,17.13
2023-01-19T06:07:57.001Z,16.27
2023-01-19T06:10:23.734Z,16.27
2023-01-19T06:12:51.599Z,17.63
2023-01-19T06:15:18.529Z,17.87
2023-01-19T06:17:44.910Z,16.93
2023-01-19T06:20:13.798Z,16.63
2023-01-19T06:22:40.156Z,16.33
2023-01-19T06:25:06.794Z,16.37
2023-01-19T06:27:33.117Z,15.90
2023-01-19T06:29:59.429Z,15.53
2023-01-19T06:32:25.761Z,15.50
2023-01-19T06:34:53.957Z,16.90
2023-01-19T06:37:20.501Z,16.07
2023-01-19T06:39:46.867Z,16.60
2023-01-19T06:42:13.324Z,15.87
2023-01-19T06:44:47.061Z,14.77
2023-01-19T06:47:15.907Z,13.60
2023-01-19T06:49:42.913Z,13.77
2023-01-19T06:52:11.370Z,14.93
2023-01-19T06:54:38.112Z,12.83
2023-01-19T06:57:04.609Z,16.00
2023-01-19T06:59:31.676Z,13.90
2023-01-19T07:01:58.918Z,14.83
2023-01-19T07:04:26.176Z,14.27
2023-01-19T07:06:52.692Z,14.40
2023-01-19T07:09:20.331Z,15.40
2023-01-19T07:11:48.171Z,16.17
2023-01-19T07:14:14.918Z,17.37
2023-01-19T07:16:41.469Z,17.07
2023-01-19T07:19:10.527Z,17.87
2023-01-19T07:21:37.321Z,19.07
2023-01-19T07:24:03.747Z,17.60
2023-01-19T07:26:30.789Z,16.37
2023-01-19T07:28:57.238Z,18.50
2023-01-19T07:31:23.906Z,17.70
2023-01-19T07:33:50.401Z,17.53
2023-01-19T07:36:16.841Z,19.23
2023-01-19T07:38:43.244Z,17.17
2023-01-19T07:41:10.239Z,17.77
2023-01-19T07:43:36.754Z,17.97
2023-01-19T07:46:05.195Z,18.67
2023-01-19T07:48:31.683Z,16.67
2023-01-19T07:51:05.137Z,18.30
2023-01-19T07:53:32.245Z,17.47
2023-01-19T07:55:58.615Z,17.83
2023-01-19T07:58:26.309Z,17.40
2023-01-19T08:00:53.045Z,18.07
2023-01-19T08:03:19.493Z,17.63
2023-01-19T08:05:51.292Z,18.40
2023-01-19T08:08:18.185Z,18.33
2023-01-19T08:10:45.082Z,19.83
2023-01-19T08:13:11.487Z,18.53
2023-01-19T08:15:37.940Z,19.13
2023-01-19T08:18:05.608Z,18.60
2023-01-19T08:20:32.312Z,18.40
2023-01-19T08:23:02.869Z,18.47
2023-01-19T08:25:33.663Z,19.40
2023-01-19T08:28:00.184Z,17.47
2023-01-19T08:30:26.768Z,17.17
2023-01-19T08:32:54.712Z,17.23
2023-01-19T08:35:22.416Z,16.80
2023-01-19T08:37:48.847Z,16.37
2023-01-19T08:40:15.401Z,16.47
2023-01-19T08:42:41.825Z,18.73
2023-01-19T08:45:09.223Z,19.83
2023-01-19T08:47:35.662Z,18.90
2023-01-19T08:50:02.097Z,20.03
2023-01-19T08:52:29.320Z,20.43
2023-01-19T08:54:55.696Z,21.10
2023-01-19T08:57:22.085Z,20.83
2023-01-19T08:59:48.485Z,20.90
2023-01-19T09:02:14.912Z,21.90
2023-01-19T09:04:41.391Z,21.13
2023-01-19T09:07:07.751Z,22.17
2023-01-19T09:09:37.685Z,23.77
2023-01-19T09:12:04.303Z,23.13
2023-01-19T09:14:30.805Z,23.53
2023-01-19T09:16:57.154Z,24.07
2023-01-19T09:19:23.548Z,24.83
2023-01-19T09:21:50.904Z,26.13
2023-01-19T09:24:17.272Z,24.67
2023-01-19T09:26:43.621Z,24.67
2023-01-19T09:29:10.075Z,24.93
2023-01-19T09:31:37.260Z,25.30
2023-01-19T09:34:03.657Z,23.67
2023-01-19T09:36:30.283Z,26.80
2023-01-19T09:38:56.709Z,25.13
2023-01-19T09:41:25.925Z,25.23
2023-01-19T09:43:57.693Z,25.20
2023-01-19T09:46:34.342Z,27.07
2023-01-19T09:49:16.677Z,26.63
2023-01-19T09:51:48.617Z,27.60
2023-01-19T09:54:17.716Z,25.50
2023-01-19T09:56:46.095Z,27.80
2023-01-19T09:59:25.339Z,26.83
2023-01-19T10:02:09.913Z,25.67
2023-01-19T10:04:44.025Z,24.47
2023-01-19T10:07:44.623Z,25.57
2023-01-19T10:10:25.756Z,25.37
2023-01-19T10:13:20.001Z,26.83
2023-01-19T10:15:54.531Z,25.47
2023-01-19T10:18:30.936Z,25.00
2023-01-19T10:21:23.308Z,26.57
2023-01-19T10:24:13.110Z,25.23
2023-01-19T10:26:42.685Z,27.07
2023-01-19T10:29:38.036Z,25.23
2023-01-19T10:32:21.199Z,28.40
2023-01-19T10:34:49.621Z,26.50
2023-01-19T10:37:29.718Z,27.13
2023-01-19T10:40:15.514Z,29.40
2023-01-19T10:42:42.083Z,28.40
2023-01-19T10:45:16.683Z,28.27
2023-01-19T10:47:44.992Z,30.27
2023-01-19T10:50:26.164Z,30.23
2023-01-19T10:52:57.399Z,29.00
2023-01-19T10:55:25.680Z,29.40
2023-01-19T10:57:53.475Z,28.17
2023-01-19T11:00:30.331Z,30.10
2023-01-19T11:02:56.807Z,28.23
2023-01-19T11:05:26.059Z,26.83
2023-01-19T11:07:52.572Z,28.40
2023-01-19T11:10:22.906Z,27.93
2023-01-19T11:13:00.946Z,27.33
2023-01-19T11:15:48.409Z,29.17
2023-01-19T11:18:33.868Z,29.63
2023-01-19T11:21:06.847Z,29.27
2023-01-19T11:23:41.872Z,29.67
2023-01-19T11:26:15.605Z,30.77
2023-01-19T11:28:51.253Z,29.97
2023-01-19T11:31:19.675Z,32.07
2023-01-19T11:33:54.811Z,30.30
2023-01-19T11:36:27.291Z,31.40
2023-01-19T11:38:59.162Z,29.30
2023-01-19T11:41:35.262Z,29.47
2023-01-19T11:44:23.410Z,27.63
2023-01-19T11:46:58.233Z,29.07
2023-01-19T11:49:41.791Z,29.50
2023-01-19T11:52:32.664Z,30.53
2023-01-19T11:55:36.316Z,27.73
2023-01-19T11:58:03.872Z,27.13
2023-01-19T12:00:39.276Z,26.87
2023-01-19T12:03:30.365Z,27.03
2023-01-19T12:06:11.679Z,29.00
2023-01-19T12:08:45.227Z,27.70
2023-01-19T12:11:18.698Z,27.33
2023-01-19T12:13:46.397Z,27.73
2023-01-19T12:16:24.501Z,25.77
2023-01-19T12:19:04.927Z,29.87
2023-01-19T12:21:31.271Z,29.87
2023-01-19T12:24:18.055Z,29.23
2023-01-19T12:27:01.910Z,31.23
2023-01-19T12:29:33.602Z,30.37
2023-01-19T12:32:16.502Z,32.40
2023-01-19T12:34:51.713Z,30.37
2023-01-19T12:37:39.462Z,33.67
2023-01-19T12:40:27.711Z,32.70
2023-01-19T12:43:05.576Z,32.40
2023-01-19T12:45:36.652Z,32.73
2023-01-19T12:48:04.531Z,34.63
2023-01-19T12:50:37.854Z,34.17
2023-01-19T12:53:15.473Z,32.20
2023-01-19T12:55:46.510Z,30.73
2023-01-19T12:58:20.823Z,32.00
2023-01-19T13:00:49.323Z,33.60
2023-01-19T13:03:18.881Z,31.10
2023-01-19T13:05:55.477Z,32.23
2023-01-19T13:08:24.608Z,33.37
2023-01-19T13:10:59.917Z,30.73
2023-01-19T13:13:29.222Z,31.87
2023-01-19T13:15:59.381Z,30.17
2023-01-19T13:18:39.704Z,29.20
2023-01-19T13:21:06.988Z,30.37
2023-01-19T13:23:51.593Z,27.20
2023-01-19T13:26:20.560Z,27.87
2023-01-19T13:28:54.763Z,27.43
2023-01-19T13:31:22.473Z,28.90
2023-01-19T13:33:58.568Z,29.83
2023-01-19T13:36:33.096Z,28.87
2023-01-19T13:39:03.751Z,30.03
2023-01-19T13:41:35.105Z,29.23
2023-01-19T13:44:07.129Z,28.90
2023-01-19T13:46:34.575Z,29.27
2023-01-19T13:49:11.591Z,27.80
2023-01-19T13:51:37.976Z,27.43
2023-01-19T13:54:06.029Z,26.63
2023-01-19T13:56:32.540Z,29.10
2023-01-19T13:59:07.016Z,28.60
2023-01-19T14:01:33.774Z,25.70
2023-01-19T14:04:00.601Z,25.40
2023-01-19T14:06:37.893Z,26.10
2023-01-19T14:09:18.864Z,22.83
2023-01-19T14:11:48.130Z,24.57
2023-01-19T14:14:25.655Z,23.03
2023-01-19T14:16:52.560Z,22.93
2023-01-19T14:19:18.942Z,21.43
2023-01-19T14:21:46.023Z,20.80
2023-01-19T14:24:18.350Z,22.87
2023-01-19T14:26:53.869Z,20.00
2023-01-19T14:29:29.246Z,20.87
2023-01-19T14:32:01.397Z,20.83
2023-01-19T14:34:43.015Z,21.20
2023-01-19T14:37:19.740Z,20.37
2023-01-19T14:39:49.304Z,19.97
2023-01-19T14:42:21.079Z,20.43
2023-01-19T14:44:51.712Z,18.00
2023-01-19T14:47:30.922Z,17.10
2023-01-19T14:50:02.007Z,17.37
2023-01-19T14:52:33.104Z,17.73
2023-01-19T14:55:02.956Z,18.83
2023-01-19T14:57:29.337Z,17.97
2023-01-19T14:59:55.754Z,19.60
2023-01-19T15:02:23.006Z,19.17
2023-01-19T15:04:51.357Z,17.23
2023-01-19T15:07:19.198Z,18.53
2023-01-19T15:09:47.169Z,18.93
2023-01-19T15:12:17.449Z,18.80
2023-01-19T15:14:45.068Z,18.67
2023-01-19T15:17:25.568Z,18.93
2023-01-19T15:19:55.848Z,19.63
2023-01-19T15:22:25.051Z,17.60
2023-01-19T15:24:51.481Z,20.43
2023-01-19T15:27:17.925Z,20.07
2023-01-19T15:29:44.980Z,20.03
2023-01-19T15:32:13.143Z,21.60
2023-01-19T15:34:39.663Z,20.23
2023-01-19T15:37:06.168Z,19.37
2023-01-19T15:39:32.751Z,17.90
2023-01-19T15:42:00.644Z,19.13
2023-01-19T15:44:27.056Z,20.17
2023-01-19T15:46:54.750Z,19.07
2023-01-19T15:49:21.217Z,19.40
2023-01-19T15:51:47.579Z,19.17
2023-01-19T15:54:19.314Z,19.00
2023-01-19T15:56:45.742Z,19.07
2023-01-19T15:59:12.211Z,18.63
2023-01-19T16:01:40.275Z,19.13
2023-01-19T16:04:09.415Z,18.10
2023-01-19T16:06:35.804Z,18.50
2023-01-19T16:09:03.725Z,17.83
2023-01-19T16:11:32.546Z,18.50
2023-01-19T16:13:59.219Z,19.77
2023-01-19T16:16:27.879Z,19.27
2023-01-19T16:18:54.651Z,19.97
2023-01-19T16:21:21.176Z,19.60
2023-01-19T16:23:47.606Z,21.27
2023-01-19T16:26:34.905Z,19.00
2023-01-19T16:29:08.506Z,20.90
2023-01-19T16:31:36.424Z,19.23
2023-01-19T16:34:02.845Z,18.80
2023-01-19T16:36:31.384Z,20.80
2023-01-19T16:38:59.767Z,20.70
2023-01-19T16:41:26.605Z,19.23
2023-01-19T16:43:54.565Z,20.83
2023-01-19T16:46:26.648Z,18.40
2023-01-19T16:48:58.188Z,20.23
2023-01-19T16:51:24.583Z,20.93
2023-01-19T16:53:50.980Z,20.20
2023-01-19T16:56:17.824Z,19.93
2023-01-19T16:58:44.603Z,19.27
2023-01-19T17:01:14.677Z,19.07
2023-01-19T17:03:42.010Z,18.90
2023-01-19T17:06:10.548Z,18.57
2023-01-19T17:08:37.851Z,17.80
2023-01-19T17:11:21.782Z,18.17
2023-01-19T17:13:52.011Z,19.07
2023-01-19T17:16:18.369Z,18.57
2023-01-19T17:18:45.221Z,17.70
2023-01-19T17:21:11.699Z,17.20
2023-01-19T17:23:42.652Z,15.70
2023-01-19T17:26:09.004Z,18.10
2023-01-19T17:28:35.621Z,17.47
2023-01-19T17:31:06.555Z,18.20
2023-01-19T17:33:33.265Z,19.57
2023-01-19T17:36:08.335Z,19.47
2023-01-19T17:38:35.410Z,20.13
2023-01-19T17:41:01.913Z,21.23
2023-01-19T17:43:28.285Z,18.80
2023-01-19T17:45:54.709Z,21.80
2023-01-19T17:48:21.128Z,21.07
2023-01-19T17:50:47.454Z,21.93
2023-01-19T17:53:13.797Z,22.07
2023-01-19T17:55:40.138Z,21.50
2023-01-19T17:58:06.524Z,22.63
2023-01-19T18:00:32.983Z,21.03
2023-01-19T18:02:59.440Z,22.37
2023-01-19T18:05:25.810Z,20.97
2023-01-19T18:07:52.174Z,22.87
2023-01-19T18:10:18.599Z,21.40
2023-01-19T18:12:45.180Z,22.50
2023-01-19T18:15:12.226Z,21.87
2023-01-19T18:17:38.598Z,22.03
2023-01-19T18:20:05.541Z,19.80
2023-01-19T18:22:32.159Z,21.93
2023-01-19T18:24:58.517Z,21.03
2023-01-19T18:27:25.004Z,21.93
2023-01-19T18:29:51.367Z,21.67
2023-01-19T18:32:17.826Z,22.27
2023-01-19T18:34:44.271Z,21.87
2023-01-19T18:37:10.675Z,24.27
2023-01-19T18:39:37.059Z,22.37
2023-01-19T18:42:03.467Z,22.00
2023-01-19T18:44:29.900Z,23.77
2023-01-19T18:46:56.602Z,24.43
2023-01-19T18:49:22.972Z,23.23
2023-01-19T18:51:49.316Z,24.30
2023-01-19T18:54:15.687Z,24.37
2023-01-19T18:56:42.015Z,22.80
2023-01-19T18:59:08.426Z,23.33
2023-01-19T19:01:35.839Z,25.13
2023-01-19T19:04:02.838Z,25.57
2023-01-19T19:06:29.205Z,23.57
2023-01-19T19:08:57.907Z,24.60
2023-01-19T19:11:24.889Z,23.50
2023-01-19T19:13:57.337Z,23.23
2023-01-19T19:16:23.791Z,25.77
2023-01-19T19:18:50.328Z,23.60
2023-01-19T19:21:18.534Z,24.43
2023-01-19T19:23:50.000Z,24.43
2023-01-19T19:26:16.420Z,25.00
2023-01-19T19:28:42.804Z,23.90
2023-01-19T19:31:15.012Z,25.20
2023-01-19T19:33:41.368Z,24.77
2023-01-19T19:36:09.202Z,24.83
2023-01-19T19:38:41.034Z,25.23
2023-01-19T19:41:09.197Z,25.33
2023-01-19T19:43:36.617Z,24.67
2023-01-19T19:46:11.494Z,25.63
2023-01-19T19:48:39.509Z,23.20
2023-01-19T19:51:18.415Z,25.37
2023-01-19T19:53:46.125Z,26.40
2023-01-19T19:56:13.458Z,23.83
2023-01-19T19:58:41.804Z,26.10
2023-01-19T20:01:10.676Z,24.80
2023-01-19T20:03:37.642Z,24.17
2023-01-19T20:06:05.984Z,22.30
2023-01-19T20:08:32.881Z,22.67
2023-01-19T20:11:10.912Z,22.70
2023-01-19T20:13:39.149Z,22.20
2023-01-19T20:16:10.177Z,22.97
2023-01-19T20:18:44.315Z,22.30
2023-01-19T20:21:13.209Z,21.50
2023-01-19T20:23:40.459Z,22.73
2023-01-19T20:26:09.210Z,21.40
2023-01-19T20:28:36.133Z,23.63
2023-01-19T20:31:32.649Z,23.73
2023-01-19T20:34:01.389Z,23.83
2023-01-19T20:36:28.801Z,23.90
2023-01-19T20:38:55.532Z,26.53
2023-01-19T20:41:23.285Z,24.63
2023-01-19T20:43:50.139Z,26.63
2023-01-19T20:46:16.659Z,25.33
2023-01-19T20:48:43.166Z,24.23
2023-01-19T20:51:12.409Z,26.83
2023-01-19T20:53:40.616Z,25.27
2023-01-19T20:56:11.232Z,25.67
2023-01-19T20:58:38.269Z,24.87
2023-01-19T21:01:11.813Z,26.00
2023-01-19T21:03:40.705Z,25.10
2023-01-19T21:06:07.171Z,27.23
2023-01-19T21:08:33.781Z,24.57
2023-01-19T21:11:00.559Z,26.33
2023-01-19T21:13:30.646Z,28.13
2023-01-19T21:15:57.176Z,27.73
2023-01-19T21:18:24.815Z,26.23
2023-01-19T21:20:51.173Z,26.77
2023-01-19T21:23:19.030Z,26.63
2023-01-19T21:25:57.588Z,25.40
2023-01-19T21:28:24.871Z,24.13
2023-01-19T21:30:52.793Z,24.40
2023-01-19T21:33:20.242Z,26.33
2023-01-19T21:35:54.885Z,25.37
2023-01-19T21:38:22.062Z,25.30
2023-01-19T21:40:48.535Z,24.17
2023-01-19T21:43:14.926Z,25.70
2023-01-19T21:45:43.101Z,25.33
2023-01-19T21:48:09.938Z,26.07
2023-01-19T21:50:36.867Z,24.60
2023-01-19T21:53:05.817Z,26.40
2023-01-19T21:55:32.889Z,25.87
2023-01-19T21:57:59.556Z,25.77
2023-01-19T22:00:29.332Z,24.57
2023-01-19T22:03:04.158Z,24.43
2023-01-19T22:05:41.040Z,24.10
2023-01-19T22:08:07.465Z,27.13
2023-01-19T22:10:37.618Z,29.03
2023-01-19T22:13:06.416Z,26.77
2023-01-19T22:15:32.779Z,30.10
2023-01-19T22:17:59.194Z,28.17
2023-01-19T22:20:25.622Z,26.07
2023-01-19T22:22:51.996Z,26.63
2023-01-19T22:25:21.868Z,25.40
2023-01-19T22:27:48.208Z,26.10
2023-01-19T22:30:14.800Z,27.80
2023-01-19T22:32:41.139Z,26.83
2023-01-19T22:35:07.790Z,27.47
2023-01-19T22:37:37.469Z,25.27
2023-01-19T22:40:04.894Z,26.47
2023-01-19T22:42:31.292Z,29.00
2023-01-19T22:44:57.631Z,28.80
2023-01-19T22:47:24.117Z,29.83
2023-01-19T22:49:50.438Z,29.50
2023-01-19T22:52:16.762Z,31.23
2023-01-19T22:54:43.083Z,28.83
2023-01-19T22:57:11.822Z,28.63
2023-01-19T22:59:38.199Z,27.63
2023-01-19T23:02:04.750Z,27.90
2023-01-19T23:04:31.206Z,28.57
2023-01-19T23:06:57.561Z,28.27
2023-01-19T23:09:23.953Z,29.67
2023-01-19T23:11:51.115Z,31.17
2023-01-19T23:14:20.146Z,30.60
2023-01-19T23:16:47.040Z,30.70
2023-01-19T23:19:14.361Z,30.67
2023-01-19T23:21:41.410Z,29.63
2023-01-19T23:24:08.457Z,28.67
2023-01-19T23:26:38.317Z,30.17
2023-01-19T23:29:08.192Z,30.87
2023-01-19T23:31:37.339Z,30.57
2023-01-19T23:34:08.977Z,30.90
2023-01-19T23:36:37.495Z,30.33
2023-01-19T23:39:06.944Z,30.13
2023-01-19T23:41:36.477Z,30.53
2023-01-19T23:44:03.706Z,31.97
2023-01-19T23:46:30.227Z,32.13
2023-01-19T23:48:56.688Z,31.20
2023-01-19T23:51:25.408Z,32.00
2023-01-19T23:53:52.412Z,32.00
2023-01-19T23:56:33.440Z,30.87
2023-01-19T23:59:02.620Z,32.53
